NOVA14 TJSJ-TFFJ
Flight info
| Callsign | NOVA14 |
|---|---|
| Flight time | N/A |
| Altitude | 21000 |
| Route | SJU RTE2 COY/N0282F170 R760 PJM |
| Aircraft | PC12/L-SDFGRWY/S |
Departure
| Time | 2026-05-05 16:58 |
|---|---|
| Airport | Luis Munoz Marin International Airport (TJSJ) |
Arrival
| Time | N/A |
|---|---|
| Airport | St. Jean Airport (TFFJ) |
| Time | Latitude | Longitude | Altitude | Speed | Heading |
|---|---|---|---|---|---|
| 2026-05-05 16:42 | 18.44401 | -65.99381 | 15 ft | 0 kts | 156° |
| 2026-05-05 16:44 | 18.44286 | -65.99781 | 15 ft | 0 kts | 249° |
| 2026-05-05 16:45 | 18.44401 | -65.99381 | 15 ft | 0 kts | 156° |
| 2026-05-05 16:54 | 18.44400 | -65.99375 | 15 ft | 2 kts | 352° |
| 2026-05-05 16:54 | 18.44448 | -65.99401 | 15 ft | 13 kts | 340° |
| 2026-05-05 16:54 | 18.44568 | -65.99460 | 15 ft | 22 kts | 308° |
| 2026-05-05 16:54 | 18.44532 | -65.99567 | 15 ft | 20 kts | 247° |
| 2026-05-05 16:55 | 18.44464 | -65.99737 | 15 ft | 31 kts | 247° |
| 2026-05-05 16:55 | 18.44396 | -65.99933 | 15 ft | 17 kts | 288° |
| 2026-05-05 16:55 | 18.44417 | -65.99955 | 15 ft | 0 kts | 359° |
| 2026-05-05 16:55 | 18.44422 | -65.99955 | 15 ft | 4 kts | 352° |
| 2026-05-05 16:56 | 18.44486 | -65.99968 | 15 ft | 13 kts | 28° |
| 2026-05-05 16:56 | 18.44541 | -65.99842 | 16 ft | 27 kts | 66° |
| 2026-05-05 16:56 | 18.44632 | -65.99622 | 17 ft | 38 kts | 67° |
| 2026-05-05 16:56 | 18.44725 | -65.99342 | 16 ft | 40 kts | 81° |
| 2026-05-05 16:57 | 18.44783 | -65.99285 | 15 ft | 4 kts | 223° |
| 2026-05-05 16:57 | 18.44744 | -65.99340 | 16 ft | 14 kts | 248° |
| 2026-05-05 16:57 | 18.44676 | -65.99505 | 16 ft | 47 kts | 247° |
| 2026-05-05 16:57 | 18.44471 | -66.00012 | 15 ft | 101 kts | 247° |
| 2026-05-05 16:58 | 18.44152 | -66.00799 | 20 ft | 132 kts | 246° |
| 2026-05-05 16:58 | 18.43783 | -66.01656 | 402 ft | 136 kts | 244° |
| 2026-05-05 16:58 | 18.43294 | -66.02635 | 614 ft | 171 kts | 239° |
| 2026-05-05 16:58 | 18.42630 | -66.03781 | 854 ft | 188 kts | 238° |
| 2026-05-05 16:59 | 18.41973 | -66.04985 | 1344 ft | 191 kts | 250° |
| 2026-05-05 16:59 | 18.42073 | -66.06345 | 1808 ft | 193 kts | 302° |
| 2026-05-05 16:59 | 18.43021 | -66.07311 | 2369 ft | 190 kts | 323° |
| 2026-05-05 16:59 | 18.44073 | -66.08150 | 2852 ft | 190 kts | 325° |
| 2026-05-05 17:00 | 18.45138 | -66.08981 | 3375 ft | 191 kts | 325° |
| 2026-05-05 17:00 | 18.46199 | -66.09803 | 3961 ft | 193 kts | 325° |
| 2026-05-05 17:00 | 18.47274 | -66.10661 | 4530 ft | 195 kts | 325° |
| 2026-05-05 17:00 | 18.48424 | -66.11425 | 4984 ft | 199 kts | 335° |
| 2026-05-05 17:01 | 18.49682 | -66.11953 | 5665 ft | 183 kts | 347° |
| 2026-05-05 17:01 | 18.50843 | -66.12192 | 6637 ft | 160 kts | 358° |
| 2026-05-05 17:01 | 18.51941 | -66.12192 | 7282 ft | 161 kts | 9° |
| 2026-05-05 17:01 | 18.53130 | -66.11943 | 7439 ft | 191 kts | 20° |
| 2026-05-05 17:02 | 18.54445 | -66.11392 | 7444 ft | 214 kts | 30° |
| 2026-05-05 17:02 | 18.55760 | -66.10559 | 7444 ft | 226 kts | 38° |
| 2026-05-05 17:02 | 18.56965 | -66.09509 | 7440 ft | 230 kts | 46° |
| 2026-05-05 17:02 | 18.58005 | -66.08298 | 7437 ft | 217 kts | 54° |
| 2026-05-05 17:03 | 18.58821 | -66.06990 | 7435 ft | 211 kts | 64° |
| 2026-05-05 17:03 | 18.59031 | -66.05517 | 7421 ft | 206 kts | 104° |
| 2026-05-05 17:03 | 18.58405 | -66.04171 | 7419 ft | 206 kts | 128° |
| 2026-05-05 17:03 | 18.57269 | -66.03256 | 7419 ft | 210 kts | 154° |